EmailTwitter


Observations de surface / Québec / CYUL (71627)

Régions: Québec | Canada | États-Unis | Europe | France | UK | Ailleurs
Station
Affichage
Infos & localisation pour CYUL (71627) | Aide pour décoder les METARs

Observations prises le 2020-08-14 à 23H00 UTC à MONTREAL INTL A, QB (CYUL)

Etat du ciel: quelques nuages.

Température: 25.0 Celsius

Point de rosée: 12.0 Celsius

Humidité relative: 44%

Indice Humidex: 27.

Vents: Est-nord-est à 17 km/h ou 9 noeuds.

Rafale du vent: 30 km/h ou 16 noeuds.

Pression au niveau moyen de la mer: 101.92 kilopascals.

Calage altimétrique: 101.90 kilopascals ou 30.09 pouces de mercure.

Visibilité horizontale: 30.00 milles terrestres ou 48.00 kilomètres.

Observation METAR:

CYUL 142300Z 07009G16KT 030V090 30SM FEW065 FEW240 25/12 A3009 WS RWY65 RMK

CF1CI1 CF TR CI TR T SLP192 DENSITY ALT 1200FT=